Farmville, Virginia
Current Conditions -  °F | °C
As of 8:15 PM on Tuesday 27 Jan 2015 (Local Time) from KFVX Reporting Station
Clear Clear  
Wind Chill: 28°   Ceiling: Unl
Heat Index: 32°   Visibility: 10mi
Dew Point: 20°   Wind: 5mph
Humidity: 59%   Direction: 330°NNW
Pressure: 29.91"   Gusts: NA
Location:  37.3°N, 78.39°W
Report Text: KFVX 280115Z AUTO 33004KT 10SM CLR 00/M07 A2991 RMK AO2 T00021069
Loading
Personal Weather Stations






























Interactive Weather Map New forecast layout! Learn more

10-Day Weather Forecast

Advertisements
Track Severe Weather on mobile